Atlanta, MI

3:43 PM EST on February 01, 2015 (GMT -0500)
RAWS ATLANTA MI US | Change Station
CLOSE
Current Station
Personal Weather Station
Location: Atlanta, MI
Elevation: 895 ft
Nearby Weather Stations

Elev 895 ft 45.15 °N, 84.19 °W | Updated 35 minutes ago

Overcast
Overcast
6 °F
Feels Like -8 °F
N
9
Wind Variable Wind from NE
Gusts 14.0 mph

Today
High -- | Low -- °F
--% Chance of Precip.
Yesterday
High -- | Low -- °F
Precip. -- in
7:56 AM 5:44 PM
Waxing Gibbous, 96% visible
Pressure 30.19 in
Visibility 1.8 miles
Clouds Overcast 1900 ft
Windchill -8 °F
Dew Point -5 °F
Humidity 61%
Rainfall -999.00 in
Snow Depth Not available.
UV 0 out of 12
Pollen .10 out of 12
Air Quality Not available.
Flu Activity Not available.
SPECI KAPN 012032Z AUTO 03014KT 1 3/4SM -SN OVC019 M14/M17 A3019 RMK AO2 UPE13SNB26 P0000 T11391167

More Conditions Fewer Conditions

Pressure 30.19 in
Visibility 1.8 miles
Clouds Overcast 1900 ft
Windchill -8 °F
Dew Point -5 °F
Humidity 61%
Rainfall -999.00 in
Snow Depth Not available.
UV 0 out of 12
Pollen .10 out of 12
Air Quality Not available.
Flu Activity Not available.
SPECI KAPN 012032Z AUTO 03014KT 1 3/4SM -SN OVC019 M14/M17 A3019 RMK AO2 UPE13SNB26 P0000 T11391167

More Conditions Fewer Conditions

Nowcast | as of 3:00 PM EST on February 1, 2015

At 4 PM...cloudy. Chance of snow. Temperature 5 above. At 6 PM...cloudy. Chance of snow. Temperature 4 above. At 8 PM...cloudy. Chance of snow. Temperature 3 above. At 10 PM...mostly cloudy. Chance of snow. Temperature 1 above. Northeast winds 13 mph with gusts to 25 mph. Wind chill 10 below.

×

10-Day Weather Forecast

Almanac

Astronomy

Feb. 01, 2015 Rise Set
Actual Time
Civil Twilight
Nautical Twilight
Astronomical Twilight
Moon
Length of Visible Light
Length of Day
Tomorrow will be .
, % of the Moon is Illuminated

Today's Extremes

State Highs State Lows

Community

WunderPhotos

Upload Photos

1,792,514 photos uploaded!

WunderBlogs® & News

Nearby

Air Quality

  Air Quality AQ Index Pollutant
Not available.

Snow Depth

Station Depth Elevation

Earthquake Activity

City Distance Mag. Time & Date
Minimum magnitude displayed is 2.5.

Coastal Water Temperatures

Place Temperature

Nearby Weather Stations